createdAt,value
2022-10-19T00:00:15.458Z,21.36
2022-10-19T00:02:41.777Z,21.36
2022-10-19T00:05:08.105Z,21.33
2022-10-19T00:07:34.713Z,21.33
2022-10-19T00:10:01.295Z,21.33
2022-10-19T00:12:27.613Z,21.32
2022-10-19T00:14:53.988Z,21.32
2022-10-19T00:17:20.329Z,21.32
2022-10-19T00:19:46.637Z,21.31
2022-10-19T00:22:14.064Z,21.32
2022-10-19T00:24:40.609Z,21.31
2022-10-19T00:27:06.929Z,21.32
2022-10-19T00:29:33.269Z,21.31
2022-10-19T00:31:59.608Z,21.30
2022-10-19T00:34:25.935Z,21.31
2022-10-19T00:36:52.283Z,21.30
2022-10-19T00:39:18.629Z,21.30
2022-10-19T00:41:45.391Z,21.29
2022-10-19T00:44:11.623Z,21.29
2022-10-19T00:46:41.408Z,21.28
2022-10-19T00:49:10.796Z,21.29
2022-10-19T00:51:38.799Z,21.29
2022-10-19T00:54:05.464Z,21.28
2022-10-19T00:56:31.796Z,21.28
2022-10-19T00:58:58.110Z,21.27
2022-10-19T01:01:24.529Z,21.28
2022-10-19T01:03:50.869Z,21.28
2022-10-19T01:06:17.194Z,21.27
2022-10-19T01:08:43.514Z,21.26
2022-10-19T01:11:28.621Z,21.26
2022-10-19T01:14:14.448Z,21.27
2022-10-19T01:16:44.273Z,21.26
2022-10-19T01:19:18.321Z,21.26
2022-10-19T01:21:50.924Z,21.25
2022-10-19T01:24:28.518Z,21.26
2022-10-19T01:27:13.759Z,21.24
2022-10-19T01:29:59.051Z,21.25
2022-10-19T01:32:34.374Z,21.24
2022-10-19T01:35:06.329Z,21.25
2022-10-19T01:37:38.427Z,21.23
2022-10-19T01:40:12.040Z,21.23
2022-10-19T01:42:42.341Z,21.22
2022-10-19T01:45:11.842Z,21.23
2022-10-19T01:47:48.583Z,21.23
2022-10-19T01:50:16.199Z,21.23
2022-10-19T01:52:42.526Z,21.23
2022-10-19T01:55:09.385Z,21.23
2022-10-19T01:57:37.113Z,21.22
2022-10-19T02:00:07.365Z,21.22
2022-10-19T02:02:38.513Z,21.22
2022-10-19T02:05:04.891Z,21.21
2022-10-19T02:07:31.241Z,21.21
2022-10-19T02:09:57.545Z,21.21
2022-10-19T02:12:24.152Z,21.21
2022-10-19T02:14:50.879Z,21.19
2022-10-19T02:17:18.356Z,21.19
2022-10-19T02:19:44.699Z,21.21
2022-10-19T02:22:11.397Z,21.20
2022-10-19T02:24:37.802Z,21.19
2022-10-19T02:27:05.453Z,21.20
2022-10-19T02:29:32.362Z,21.19
2022-10-19T02:31:58.691Z,21.19
2022-10-19T02:34:25.018Z,21.19
2022-10-19T02:36:51.370Z,21.19
2022-10-19T02:39:17.690Z,21.18
2022-10-19T02:42:01.205Z,21.17
2022-10-19T02:44:37.705Z,21.17
2022-10-19T02:47:09.909Z,21.18
2022-10-19T02:49:36.222Z,21.19
2022-10-19T02:52:03.690Z,21.20
2022-10-19T02:54:30.026Z,21.21
2022-10-19T02:56:56.347Z,21.21
2022-10-19T02:59:22.721Z,21.23
2022-10-19T03:01:49.057Z,21.24
2022-10-19T03:04:15.423Z,21.24
2022-10-19T03:06:41.752Z,21.26
2022-10-19T03:09:08.093Z,21.27
2022-10-19T03:11:34.423Z,21.26
2022-10-19T03:14:00.739Z,21.26
2022-10-19T03:16:27.061Z,21.26
2022-10-19T03:18:54.264Z,21.26
2022-10-19T03:21:20.631Z,21.27
2022-10-19T03:23:46.950Z,21.25
2022-10-19T03:26:13.846Z,21.25
2022-10-19T03:28:40.262Z,21.26
2022-10-19T03:31:06.626Z,21.26
2022-10-19T03:33:32.947Z,21.26
2022-10-19T03:36:19.786Z,21.28
2022-10-19T03:38:46.102Z,21.29
2022-10-19T03:41:12.505Z,21.31
2022-10-19T03:43:38.846Z,21.32
2022-10-19T03:46:05.161Z,21.31
2022-10-19T03:48:31.464Z,21.32
2022-10-19T03:50:58.403Z,21.32
2022-10-19T03:53:24.728Z,21.32
2022-10-19T03:55:51.062Z,21.32
2022-10-19T03:58:17.382Z,21.32
2022-10-19T04:00:43.748Z,21.33
2022-10-19T04:03:10.102Z,21.32
2022-10-19T04:05:36.410Z,21.31
2022-10-19T04:08:02.734Z,21.32
2022-10-19T04:10:30.633Z,21.31
2022-10-19T04:12:56.946Z,21.31
2022-10-19T04:15:23.262Z,21.31
2022-10-19T04:17:49.581Z,21.31
2022-10-19T04:20:15.974Z,21.30
2022-10-19T04:22:42.294Z,21.30
2022-10-19T04:25:09.267Z,21.30
2022-10-19T04:27:35.967Z,21.29
2022-10-19T04:30:02.468Z,21.28
2022-10-19T04:32:28.794Z,21.29
2022-10-19T04:34:55.106Z,21.29
2022-10-19T04:37:21.423Z,21.29
2022-10-19T04:39:47.738Z,21.28
2022-10-19T04:42:14.059Z,21.27
2022-10-19T04:44:40.422Z,21.28
2022-10-19T04:47:06.738Z,21.27
2022-10-19T04:49:33.053Z,21.30
2022-10-19T04:51:59.369Z,21.31
2022-10-19T04:54:25.711Z,21.38
2022-10-19T04:56:53.807Z,21.36
2022-10-19T05:00:00.308Z,20.97
2022-10-19T05:02:26.621Z,21.06
2022-10-19T05:04:52.935Z,21.14
2022-10-19T05:07:19.257Z,21.17
2022-10-19T05:09:45.624Z,21.20
2022-10-19T05:12:11.955Z,21.21
2022-10-19T05:14:41.913Z,21.22
2022-10-19T05:17:09.245Z,21.23
2022-10-19T05:19:35.550Z,21.24
2022-10-19T05:22:01.880Z,21.26
2022-10-19T05:24:28.186Z,21.28
2022-10-19T05:26:54.511Z,21.29
2022-10-19T05:29:20.825Z,21.30
2022-10-19T05:31:47.179Z,21.30
2022-10-19T05:34:13.488Z,21.32
2022-10-19T05:36:39.950Z,21.32
2022-10-19T05:39:07.169Z,21.32
2022-10-19T05:41:33.561Z,21.31
2022-10-19T05:44:00.745Z,21.32
2022-10-19T05:46:27.450Z,21.32
2022-10-19T05:48:54.373Z,21.30
2022-10-19T05:51:20.814Z,21.31
2022-10-19T05:53:47.130Z,21.30
2022-10-19T05:56:17.104Z,21.31
2022-10-19T05:58:43.425Z,21.31
2022-10-19T06:01:09.746Z,21.30
2022-10-19T06:03:36.071Z,21.31
2022-10-19T06:06:05.670Z,21.30
2022-10-19T06:08:32.012Z,21.30
2022-10-19T06:11:08.212Z,21.29
2022-10-19T06:13:34.556Z,21.29
2022-10-19T06:16:00.868Z,21.29
2022-10-19T06:18:27.210Z,21.29
2022-10-19T06:20:53.539Z,21.28
2022-10-19T06:23:19.840Z,21.28
2022-10-19T06:25:46.214Z,21.28
2022-10-19T06:28:12.530Z,21.27
2022-10-19T06:30:40.115Z,21.25
2022-10-19T06:33:06.455Z,21.27
2022-10-19T06:35:32.887Z,21.26
2022-10-19T06:37:59.193Z,21.26
2022-10-19T06:40:25.573Z,21.24
2022-10-19T06:42:51.927Z,21.25
2022-10-19T06:45:18.275Z,21.24
2022-10-19T06:47:44.674Z,21.21
2022-10-19T06:50:11.265Z,21.22
2022-10-19T06:52:38.149Z,21.23
2022-10-19T06:55:04.593Z,21.21
2022-10-19T06:57:30.915Z,21.22
2022-10-19T06:59:57.261Z,21.21
2022-10-19T07:02:23.575Z,21.20
2022-10-19T07:04:49.911Z,21.20
2022-10-19T07:07:16.232Z,21.21
2022-10-19T07:09:42.548Z,21.19
2022-10-19T07:12:10.727Z,21.18
2022-10-19T07:14:39.430Z,21.19
2022-10-19T07:17:06.143Z,21.19
2022-10-19T07:19:32.471Z,21.22
2022-10-19T07:21:58.769Z,21.23
2022-10-19T07:24:25.140Z,21.20
2022-10-19T07:26:51.450Z,21.13
2022-10-19T07:29:17.762Z,21.09
2022-10-19T07:31:44.087Z,21.07
2022-10-19T07:34:11.157Z,21.07
2022-10-19T07:36:37.824Z,20.98
2022-10-19T07:39:05.380Z,20.80
2022-10-19T07:41:31.688Z,20.56
2022-10-19T07:43:58.109Z,20.50
2022-10-19T07:46:25.661Z,20.81
2022-10-19T07:48:52.647Z,20.99
2022-10-19T07:51:19.006Z,21.10
2022-10-19T07:53:45.371Z,21.08
2022-10-19T07:56:20.717Z,21.11
2022-10-19T07:58:47.159Z,21.11
2022-10-19T08:01:14.213Z,20.90
2022-10-19T08:04:31.810Z,20.38
2022-10-19T08:06:26.830Z,20.75
2022-10-19T08:08:53.320Z,20.93
2022-10-19T08:11:20.628Z,21.01
2022-10-19T08:13:47.307Z,21.06
2022-10-19T08:16:29.956Z,21.06
2022-10-19T08:18:57.634Z,21.11
2022-10-19T08:21:24.330Z,21.13
2022-10-19T08:23:50.655Z,21.15
2022-10-19T08:26:16.974Z,21.16
2022-10-19T08:28:43.302Z,21.15
2022-10-19T08:31:19.443Z,21.19
2022-10-19T08:33:45.773Z,21.17
2022-10-19T08:36:12.743Z,21.18
2022-10-19T08:38:39.090Z,21.15
2022-10-19T08:41:28.581Z,21.17
2022-10-19T08:43:56.821Z,21.17
2022-10-19T08:46:24.876Z,21.17
2022-10-19T08:48:51.215Z,21.18
2022-10-19T08:51:17.545Z,21.17
2022-10-19T08:53:45.986Z,21.17
2022-10-19T08:56:49.489Z,21.17
2022-10-19T08:59:32.519Z,21.17
2022-10-19T09:01:59.653Z,21.18
2022-10-19T09:04:26.501Z,21.18
2022-10-19T09:07:11.656Z,21.17
2022-10-19T09:09:39.838Z,21.16
2022-10-19T09:12:06.440Z,21.18
2022-10-19T09:14:38.588Z,21.17
2022-10-19T09:17:09.152Z,21.21
2022-10-19T09:19:35.467Z,21.24
2022-10-19T09:22:02.851Z,21.22
2022-10-19T09:24:30.332Z,21.20
2022-10-19T09:26:59.962Z,20.99
2022-10-19T09:29:38.203Z,20.78
2022-10-19T09:32:05.379Z,20.95
2022-10-19T09:34:38.297Z,21.05
2022-10-19T09:37:04.677Z,21.10
2022-10-19T09:39:31.084Z,21.13
2022-10-19T09:42:04.688Z,21.16
2022-10-19T09:44:31.010Z,21.17
2022-10-19T09:47:10.205Z,21.18
2022-10-19T09:49:39.245Z,21.20
2022-10-19T09:52:05.558Z,21.18
2022-10-19T09:54:35.403Z,21.19
2022-10-19T09:57:01.778Z,21.18
2022-10-19T09:59:33.620Z,21.20
2022-10-19T10:02:05.950Z,21.19
2022-10-19T10:04:32.294Z,21.19
2022-10-19T10:06:58.620Z,21.18
2022-10-19T10:09:26.671Z,21.19
2022-10-19T10:14:29.164Z,21.20
2022-10-19T10:17:18.874Z,21.18
2022-10-19T10:20:00.254Z,21.19
2022-10-19T10:22:27.298Z,21.18
2022-10-19T10:24:54.002Z,21.18
2022-10-19T10:27:33.783Z,21.18
2022-10-19T10:30:02.548Z,21.18
2022-10-19T10:32:28.991Z,21.19
2022-10-19T10:35:01.987Z,21.19
2022-10-19T10:37:29.781Z,21.19
2022-10-19T10:39:59.040Z,21.19
2022-10-19T10:42:29.303Z,21.20
2022-10-19T10:44:56.394Z,21.20
2022-10-19T10:47:22.708Z,21.20
2022-10-19T10:49:58.652Z,21.21
2022-10-19T10:52:25.254Z,21.19
2022-10-19T10:55:01.481Z,20.80
2022-10-19T10:57:32.486Z,20.62
2022-10-19T11:00:07.999Z,20.86
2022-10-19T11:02:36.078Z,20.98
2022-10-19T11:05:05.115Z,21.06
2022-10-19T11:07:32.478Z,21.11
2022-10-19T11:10:00.068Z,21.16
2022-10-19T11:12:39.722Z,21.13
2022-10-19T11:15:07.133Z,21.17
2022-10-19T11:17:34.086Z,21.16
2022-10-19T11:20:00.585Z,21.18
2022-10-19T11:22:31.969Z,21.17
2022-10-19T11:24:58.193Z,21.15
2022-10-19T11:27:45.202Z,21.13
2022-10-19T11:30:19.016Z,21.15
2022-10-19T11:33:04.072Z,21.18
2022-10-19T11:35:39.216Z,21.16
2022-10-19T11:38:20.160Z,21.14
2022-10-19T11:41:22.331Z,21.03
2022-10-19T11:44:07.093Z,20.82
2022-10-19T11:46:52.049Z,20.98
2022-10-19T11:49:28.329Z,21.08
2022-10-19T11:51:57.551Z,21.11
2022-10-19T11:54:36.603Z,21.14
2022-10-19T11:57:13.286Z,21.20
2022-10-19T11:59:43.295Z,21.24
2022-10-19T12:02:31.096Z,21.26
2022-10-19T12:04:57.731Z,21.30
2022-10-19T12:07:30.209Z,21.31
2022-10-19T12:10:04.955Z,21.30
2022-10-19T12:12:38.281Z,21.26
2022-10-19T12:15:17.163Z,21.23
2022-10-19T12:17:44.567Z,21.22
2022-10-19T12:20:18.898Z,21.22
2022-10-19T12:22:46.220Z,21.21
2022-10-19T12:25:12.808Z,21.21
2022-10-19T12:27:39.121Z,21.21
2022-10-19T12:30:06.971Z,21.20
2022-10-19T12:32:35.917Z,21.19
2022-10-19T12:35:17.236Z,21.26
2022-10-19T12:37:49.837Z,21.34
2022-10-19T12:40:37.077Z,21.40
2022-10-19T12:43:05.437Z,21.45
2022-10-19T12:45:35.704Z,21.47
2022-10-19T12:48:08.060Z,21.49
2022-10-19T12:50:49.720Z,21.51
2022-10-19T12:53:30.565Z,21.52
2022-10-19T12:56:00.446Z,21.46
2022-10-19T12:58:26.772Z,21.44
2022-10-19T13:00:59.424Z,21.45
2022-10-19T13:03:29.022Z,21.46
2022-10-19T13:05:59.989Z,21.45
2022-10-19T13:08:27.382Z,21.48
2022-10-19T13:11:03.738Z,21.49
2022-10-19T13:13:49.879Z,21.51
2022-10-19T13:16:28.408Z,21.52
2022-10-19T13:19:06.081Z,21.54
2022-10-19T13:21:51.231Z,21.54
2022-10-19T13:24:25.715Z,21.53
2022-10-19T13:27:04.113Z,21.52
2022-10-19T13:29:39.633Z,21.54
2022-10-19T13:32:24.710Z,21.54
2022-10-19T13:34:51.068Z,21.54
2022-10-19T13:37:17.649Z,21.52
2022-10-19T13:39:43.956Z,21.54
2022-10-19T13:42:25.977Z,21.54
2022-10-19T13:44:52.975Z,21.52
2022-10-19T13:47:22.821Z,21.52
2022-10-19T13:50:21.647Z,21.52
2022-10-19T13:52:57.298Z,21.55
2022-10-19T13:55:23.534Z,21.53
2022-10-19T13:58:13.830Z,21.54
2022-10-19T14:01:02.622Z,21.53
2022-10-19T14:03:31.577Z,21.52
2022-10-19T14:06:16.771Z,21.52
2022-10-19T14:09:01.763Z,21.51
2022-10-19T14:11:31.176Z,21.51
2022-10-19T14:14:14.552Z,21.51
2022-10-19T14:16:47.788Z,21.49
2022-10-19T14:19:14.259Z,21.50
2022-10-19T14:21:41.185Z,21.50
2022-10-19T14:24:21.125Z,21.49
2022-10-19T14:26:47.438Z,21.49
2022-10-19T14:29:13.773Z,21.48
2022-10-19T14:31:40.077Z,21.48
2022-10-19T14:34:07.455Z,21.47
2022-10-19T14:36:35.527Z,21.48
2022-10-19T14:39:01.853Z,21.46
2022-10-19T14:41:28.157Z,21.47
2022-10-19T14:43:58.603Z,21.47
2022-10-19T14:46:31.335Z,21.47
2022-10-19T14:49:01.262Z,21.46
2022-10-19T14:51:39.509Z,21.44
2022-10-19T14:54:05.763Z,21.45
2022-10-19T14:56:31.993Z,21.44
2022-10-19T14:59:05.623Z,21.42
2022-10-19T15:01:31.962Z,21.43
2022-10-19T15:03:58.355Z,21.42
2022-10-19T15:06:28.667Z,21.42
2022-10-19T15:08:55.670Z,21.41
2022-10-19T15:11:23.649Z,21.42
2022-10-19T15:13:51.810Z,21.40
2022-10-19T15:16:28.853Z,21.42
2022-10-19T15:18:55.347Z,21.43
2022-10-19T15:21:21.799Z,21.44
2022-10-19T15:23:48.777Z,21.44
2022-10-19T15:26:17.362Z,21.46
2022-10-19T15:28:43.879Z,21.46
2022-10-19T15:31:19.921Z,21.46
2022-10-19T15:33:53.214Z,21.47
2022-10-19T15:36:20.007Z,21.46
2022-10-19T15:38:47.139Z,21.44
2022-10-19T15:41:20.804Z,21.41
2022-10-19T15:43:49.275Z,21.40
2022-10-19T15:46:25.812Z,21.43
2022-10-19T15:48:55.282Z,21.44
2022-10-19T15:51:24.544Z,21.43
2022-10-19T15:53:51.370Z,21.42
2022-10-19T15:56:17.678Z,21.43
2022-10-19T15:58:43.991Z,21.42
2022-10-19T16:01:11.550Z,21.43
2022-10-19T16:03:37.870Z,21.44
2022-10-19T16:06:04.282Z,21.41
2022-10-19T16:08:30.721Z,21.40
2022-10-19T16:10:57.045Z,21.40
2022-10-19T16:13:23.357Z,21.40
2022-10-19T16:15:56.799Z,21.40
2022-10-19T16:18:36.550Z,21.40
2022-10-19T16:21:02.848Z,21.40
2022-10-19T16:23:30.723Z,21.40
2022-10-19T16:25:57.047Z,21.40
2022-10-19T16:28:23.475Z,21.39
2022-10-19T16:30:53.078Z,21.38
2022-10-19T16:33:19.407Z,21.37
2022-10-19T16:35:45.713Z,21.37
2022-10-19T16:38:12.266Z,21.36
2022-10-19T16:40:38.575Z,21.39
2022-10-19T16:43:04.893Z,21.36
2022-10-19T16:45:31.267Z,21.40
2022-10-19T16:47:57.595Z,21.38
2022-10-19T16:50:23.906Z,21.41
2022-10-19T16:53:12.172Z,21.40
2022-10-19T16:55:39.646Z,21.31
2022-10-19T16:58:05.978Z,21.32
2022-10-19T17:00:32.322Z,21.32
2022-10-19T17:02:58.637Z,21.33
2022-10-19T17:05:24.956Z,21.34
2022-10-19T17:07:51.274Z,21.34
2022-10-19T17:10:17.601Z,21.34
2022-10-19T17:12:43.972Z,21.36
2022-10-19T17:15:37.541Z,21.30
2022-10-19T17:17:57.989Z,21.62
2022-10-19T17:20:24.317Z,21.69
2022-10-19T17:22:51.694Z,21.66
2022-10-19T17:25:18.024Z,21.72
2022-10-19T17:27:44.352Z,21.72
2022-10-19T17:30:10.742Z,21.75
2022-10-19T17:32:37.305Z,21.77
2022-10-19T17:35:03.820Z,21.85
2022-10-19T17:37:30.151Z,22.02
2022-10-19T17:39:56.490Z,22.13
2022-10-19T17:42:22.814Z,22.22
2022-10-19T17:44:49.109Z,22.29
2022-10-19T17:47:15.433Z,22.30
2022-10-19T17:49:41.749Z,22.35
2022-10-19T17:52:08.078Z,22.38
2022-10-19T17:54:43.474Z,22.48
2022-10-19T17:57:20.690Z,22.43
2022-10-19T17:59:53.028Z,22.38
2022-10-19T18:02:19.663Z,22.08
2022-10-19T18:04:46.115Z,21.96
2022-10-19T18:07:12.496Z,21.84
2022-10-19T18:09:38.798Z,21.80
2022-10-19T18:12:07.583Z,21.76
2022-10-19T18:14:34.024Z,21.77
2022-10-19T18:17:00.337Z,21.75
2022-10-19T18:19:26.650Z,21.73
2022-10-19T18:21:53.372Z,21.71
2022-10-19T18:24:21.228Z,21.67
2022-10-19T18:26:48.019Z,21.80
2022-10-19T18:29:18.147Z,21.79
2022-10-19T18:31:44.626Z,21.74
2022-10-19T18:34:12.781Z,21.72
2022-10-19T18:36:39.109Z,21.70
2022-10-19T18:39:05.426Z,21.75
2022-10-19T18:41:31.817Z,21.73
2022-10-19T18:44:03.091Z,21.67
2022-10-19T18:46:29.419Z,21.80
2022-10-19T18:48:55.770Z,21.80
2022-10-19T18:51:22.107Z,21.83
2022-10-19T18:53:48.426Z,21.80
2022-10-19T18:56:15.425Z,21.81
2022-10-19T18:58:41.834Z,21.83
2022-10-19T19:01:18.049Z,21.84
2022-10-19T19:03:45.156Z,21.81
2022-10-19T19:06:15.059Z,21.80
2022-10-19T19:08:41.484Z,21.79
2022-10-19T19:11:11.631Z,21.81
2022-10-19T19:13:38.083Z,21.80
2022-10-19T19:16:04.570Z,21.81
2022-10-19T19:18:33.641Z,21.79
2022-10-19T19:21:03.365Z,21.80
2022-10-19T19:23:29.839Z,21.84
2022-10-19T19:25:56.150Z,21.86
2022-10-19T19:28:22.478Z,21.83
2022-10-19T19:30:48.822Z,21.82
2022-10-19T19:33:15.147Z,21.83
2022-10-19T19:35:41.988Z,21.83
2022-10-19T19:38:08.380Z,21.83
2022-10-19T19:40:34.677Z,21.82
2022-10-19T19:43:01.115Z,21.81
2022-10-19T19:45:27.435Z,21.82
2022-10-19T19:47:53.753Z,21.80
2022-10-19T19:50:20.076Z,21.81
2022-10-19T19:52:48.352Z,21.80
2022-10-19T19:55:14.663Z,21.30
2022-10-19T19:57:40.986Z,21.49
2022-10-19T20:00:07.584Z,21.59
2022-10-19T20:02:38.978Z,21.66
2022-10-19T20:05:05.291Z,21.67
2022-10-19T20:07:31.613Z,21.69
2022-10-19T20:09:57.942Z,21.69
2022-10-19T20:12:24.256Z,21.69
2022-10-19T20:14:50.557Z,21.67
2022-10-19T20:17:16.901Z,21.66
2022-10-19T20:19:43.255Z,21.65
2022-10-19T20:22:09.598Z,21.65
2022-10-19T20:24:37.647Z,21.63
2022-10-19T20:27:04.190Z,21.62
2022-10-19T20:29:30.502Z,21.62
2022-10-19T20:31:56.927Z,21.60
2022-10-19T20:34:24.030Z,21.59
2022-10-19T20:36:50.488Z,21.60
2022-10-19T20:39:16.806Z,21.58
2022-10-19T20:41:43.193Z,21.57
2022-10-19T20:44:09.541Z,21.57
2022-10-19T20:46:36.955Z,21.56
2022-10-19T20:49:03.469Z,21.54
2022-10-19T20:51:31.865Z,21.54
2022-10-19T20:53:58.610Z,21.53
2022-10-19T20:56:25.885Z,21.53
2022-10-19T20:58:55.853Z,21.51
2022-10-19T21:01:22.724Z,21.50
2022-10-19T21:03:49.562Z,21.50
2022-10-19T21:06:15.890Z,21.49
2022-10-19T21:08:42.247Z,21.49
2022-10-19T21:11:15.407Z,21.49
2022-10-19T21:13:41.964Z,21.49
2022-10-19T21:16:09.130Z,21.50
2022-10-19T21:18:35.558Z,21.49
2022-10-19T21:21:09.330Z,21.48
2022-10-19T21:23:35.650Z,21.49
2022-10-19T21:26:01.967Z,21.47
2022-10-19T21:28:28.289Z,21.46
2022-10-19T21:30:54.666Z,21.45
2022-10-19T21:33:20.990Z,21.45
2022-10-19T21:35:47.333Z,21.44
2022-10-19T21:38:13.680Z,21.44
2022-10-19T21:40:40.015Z,21.44
2022-10-19T21:43:06.334Z,21.45
2022-10-19T21:45:32.679Z,21.44
2022-10-19T21:47:59.007Z,21.42
2022-10-19T21:50:25.337Z,21.43
2022-10-19T21:52:51.698Z,21.43
2022-10-19T21:55:18.032Z,21.43
2022-10-19T21:57:44.375Z,21.42
2022-10-19T22:00:10.830Z,21.42
2022-10-19T22:02:39.300Z,21.42
2022-10-19T22:05:05.735Z,21.42
2022-10-19T22:07:32.180Z,21.42
2022-10-19T22:09:58.581Z,21.41
2022-10-19T22:12:24.897Z,21.42
2022-10-19T22:14:51.213Z,21.40
2022-10-19T22:17:17.537Z,21.40
2022-10-19T22:19:43.839Z,21.39
2022-10-19T22:22:10.158Z,21.39
2022-10-19T22:24:36.467Z,21.37
2022-10-19T22:27:02.782Z,21.37
2022-10-19T22:29:29.121Z,21.37
2022-10-19T22:31:55.479Z,21.36
2022-10-19T22:34:21.827Z,21.36
2022-10-19T22:36:48.142Z,21.36
2022-10-19T22:39:14.456Z,21.36
2022-10-19T22:41:40.782Z,21.34
2022-10-19T22:44:07.115Z,21.36
2022-10-19T22:46:33.476Z,21.32
2022-10-19T22:48:59.885Z,21.33
2022-10-19T22:51:26.274Z,21.32
2022-10-19T22:53:52.604Z,21.32
2022-10-19T22:56:18.946Z,21.31
2022-10-19T22:58:45.311Z,21.32
2022-10-19T23:01:12.327Z,21.31
2022-10-19T23:03:41.608Z,21.31
2022-10-19T23:06:08.347Z,21.31
2022-10-19T23:08:34.701Z,21.30
2022-10-19T23:11:01.067Z,21.30
2022-10-19T23:13:27.393Z,21.29
2022-10-19T23:15:53.718Z,21.28
2022-10-19T23:18:20.060Z,21.27
2022-10-19T23:20:53.723Z,21.28
2022-10-19T23:23:20.053Z,21.27
2022-10-19T23:25:56.122Z,21.25
2022-10-19T23:28:22.446Z,21.25
2022-10-19T23:30:50.228Z,21.25
2022-10-19T23:33:16.689Z,21.22
2022-10-19T23:35:43.027Z,21.23
2022-10-19T23:38:09.477Z,21.24
2022-10-19T23:40:35.911Z,21.21
2022-10-19T23:43:02.263Z,21.21
2022-10-19T23:45:29.772Z,21.22
2022-10-19T23:47:56.249Z,21.18
2022-10-19T23:50:22.558Z,21.17
2022-10-19T23:52:48.873Z,21.17
2022-10-19T23:55:15.187Z,21.16
2022-10-19T23:57:41.500Z,21.13
